createdAt,value
2018-01-11T00:01:53.503Z,6.85
2018-01-11T00:05:03.847Z,9.48
2018-01-11T00:08:13.856Z,10.27
2018-01-11T00:11:23.780Z,7.15
2018-01-11T00:14:34.108Z,6.85
2018-01-11T00:17:43.904Z,11.50
2018-01-11T00:20:54.172Z,5.97
2018-01-11T00:24:04.198Z,7.55
2018-01-11T00:27:14.824Z,10.60
2018-01-11T00:30:24.799Z,8.13
2018-01-11T00:33:34.793Z,8.55
2018-01-11T00:36:45.322Z,6.80
2018-01-11T00:39:55.725Z,7.90
2018-01-11T00:43:05.616Z,9.18
2018-01-11T00:46:15.450Z,7.50
2018-01-11T00:49:26.024Z,7.20
2018-01-11T00:52:36.655Z,6.62
2018-01-11T00:55:46.471Z,7.35
2018-01-11T00:58:57.598Z,6.53
2018-01-11T01:02:07.672Z,5.75
2018-01-11T01:05:18.217Z,8.43
2018-01-11T01:08:28.769Z,7.50
2018-01-11T01:11:39.010Z,6.03
2018-01-11T01:14:49.333Z,10.00
2018-01-11T01:17:59.990Z,7.00
2018-01-11T01:21:09.867Z,7.22
2018-01-11T01:24:20.011Z,7.22
2018-01-11T01:27:30.573Z,7.15
2018-01-11T01:30:41.110Z,7.03
2018-01-11T01:33:51.361Z,6.95
2018-01-11T01:37:01.772Z,6.97
2018-01-11T01:40:12.197Z,8.15
2018-01-11T01:43:22.347Z,8.15
2018-01-11T01:46:32.733Z,7.50
2018-01-11T01:49:43.315Z,7.62
2018-01-11T01:52:53.361Z,8.35
2018-01-11T01:56:03.777Z,3.95
2018-01-11T01:59:13.843Z,7.90
2018-01-11T02:02:23.916Z,6.75
2018-01-11T02:05:34.001Z,6.35
2018-01-11T02:08:44.672Z,8.00
2018-01-11T02:11:54.927Z,7.70
2018-01-11T02:15:04.731Z,7.05
2018-01-11T02:18:15.184Z,7.30
2018-01-11T02:21:25.361Z,6.22
2018-01-11T02:24:34.984Z,11.77
2018-01-11T02:27:45.230Z,6.05
2018-01-11T02:30:55.945Z,7.20
2018-01-11T02:34:08.291Z,7.43
2018-01-11T02:37:18.161Z,7.40
2018-01-11T02:40:28.042Z,6.93
2018-01-11T02:43:37.957Z,7.45
2018-01-11T02:46:47.929Z,6.90
2018-01-11T02:49:58.674Z,5.43
2018-01-11T02:53:08.902Z,6.70
2018-01-11T02:56:19.893Z,7.95
2018-01-11T02:59:30.553Z,7.35
2018-01-11T03:02:40.840Z,7.50
2018-01-11T03:05:52.300Z,4.97
2018-01-11T03:09:02.590Z,6.82
2018-01-11T03:12:12.309Z,6.62
2018-01-11T03:15:22.387Z,6.45
2018-01-11T03:18:32.066Z,4.87
2018-01-11T03:21:43.188Z,6.03
2018-01-11T03:24:53.060Z,5.37
2018-01-11T03:28:02.774Z,5.65
2018-01-11T03:31:13.536Z,7.95
2018-01-11T03:34:23.735Z,4.93
2018-01-11T03:37:33.934Z,5.95
2018-01-11T03:40:43.978Z,5.82
2018-01-11T03:43:53.939Z,5.43
2018-01-11T03:47:03.713Z,4.95
2018-01-11T03:50:14.043Z,5.40
2018-01-11T03:53:23.838Z,5.15
2018-01-11T03:56:33.861Z,5.68
2018-01-11T03:59:44.080Z,6.87
2018-01-11T04:02:54.245Z,5.53
2018-01-11T04:06:04.809Z,6.82
2018-01-11T04:09:14.732Z,5.78
2018-01-11T04:12:24.935Z,5.07
2018-01-11T04:15:36.331Z,4.80
2018-01-11T04:18:46.561Z,5.55
2018-01-11T04:21:56.508Z,6.65
2018-01-11T04:25:06.621Z,7.35
2018-01-11T04:28:16.377Z,6.95
2018-01-11T04:31:26.452Z,7.90
2018-01-11T04:34:36.415Z,5.57
2018-01-11T04:37:46.555Z,9.30
2018-01-11T04:40:56.413Z,10.63
2018-01-11T04:44:06.310Z,6.85
2018-01-11T04:47:16.842Z,8.25
2018-01-11T04:50:27.159Z,7.40
2018-01-11T04:53:37.186Z,11.70
2018-01-11T04:56:47.079Z,8.63
2018-01-11T04:59:56.847Z,6.00
2018-01-11T05:03:07.623Z,6.00
2018-01-11T05:06:18.549Z,5.95
2018-01-11T05:09:28.797Z,6.40
2018-01-11T05:12:38.924Z,7.50
2018-01-11T05:15:49.685Z,6.45
2018-01-11T05:18:59.523Z,7.28
2018-01-11T05:22:09.940Z,8.40
2018-01-11T05:25:19.754Z,7.35
2018-01-11T05:28:30.168Z,6.03
2018-01-11T05:31:39.960Z,6.95
2018-01-11T05:34:50.047Z,5.35
2018-01-11T05:37:59.957Z,5.50
2018-01-11T05:41:09.892Z,5.45
2018-01-11T05:44:20.792Z,5.55
2018-01-11T05:47:30.908Z,6.03
2018-01-11T05:50:40.699Z,6.85
2018-01-11T05:53:50.934Z,5.20
2018-01-11T05:57:01.446Z,4.57
2018-01-11T06:00:11.596Z,4.53
2018-01-11T06:03:22.090Z,5.43
2018-01-11T06:06:31.961Z,5.00
2018-01-11T06:09:42.542Z,4.37
2018-01-11T06:12:52.614Z,5.90
2018-01-11T06:16:02.530Z,5.07
2018-01-11T06:19:12.373Z,5.28
2018-01-11T06:22:22.712Z,6.05
2018-01-11T06:25:32.789Z,5.70
2018-01-11T06:28:42.803Z,5.53
2018-01-11T06:31:53.471Z,6.18
2018-01-11T06:35:03.574Z,4.80
2018-01-11T06:38:14.371Z,5.35
2018-01-11T06:41:25.056Z,6.32
2018-01-11T06:44:35.280Z,5.05
2018-01-11T06:47:46.457Z,3.40
2018-01-11T06:50:56.642Z,6.18
2018-01-11T06:54:06.599Z,8.13
2018-01-11T06:57:17.042Z,5.82
2018-01-11T07:00:26.799Z,4.60
2018-01-11T07:03:37.711Z,6.03
2018-01-11T07:06:48.207Z,5.85
2018-01-11T07:09:58.257Z,7.60
2018-01-11T07:13:08.180Z,13.02
2018-01-11T07:16:18.062Z,31.08
2018-01-11T07:19:27.991Z,37.47
2018-01-11T07:22:38.530Z,28.92
2018-01-11T07:25:48.884Z,18.55
2018-01-11T07:28:58.987Z,11.23
2018-01-11T07:32:08.858Z,7.87
2018-01-11T07:35:19.446Z,9.07
2018-01-11T07:38:29.931Z,12.07
2018-01-11T07:41:40.123Z,6.20
2018-01-11T07:44:50.168Z,6.35
2018-01-11T07:48:00.146Z,7.40
2018-01-11T07:51:10.267Z,8.48
2018-01-11T07:54:20.989Z,6.05
2018-01-11T07:57:31.277Z,5.95
2018-01-11T08:00:41.586Z,7.25
2018-01-11T08:03:52.346Z,7.55
2018-01-11T08:07:03.246Z,5.95
2018-01-11T08:10:14.360Z,6.00
2018-01-11T08:13:24.897Z,5.78
2018-01-11T08:16:35.642Z,4.70
2018-01-11T08:19:45.641Z,6.78
2018-01-11T08:22:56.040Z,7.03
2018-01-11T08:26:07.082Z,5.37
2018-01-11T08:29:17.010Z,7.53
2018-01-11T08:32:27.107Z,5.87
2018-01-11T08:35:37.220Z,8.98
2018-01-11T08:38:47.446Z,6.70
2018-01-11T08:41:57.506Z,6.62
2018-01-11T08:45:07.354Z,6.32
2018-01-11T08:48:18.398Z,6.12
2018-01-11T08:51:28.482Z,7.03
2018-01-11T08:54:38.947Z,5.60
2018-01-11T08:57:50.123Z,8.15
2018-01-11T09:01:00.968Z,6.70
2018-01-11T09:04:11.835Z,7.15
2018-01-11T09:07:21.992Z,8.13
2018-01-11T09:10:32.187Z,8.30
2018-01-11T09:13:42.455Z,7.65
2018-01-11T09:16:53.124Z,9.63
2018-01-11T09:20:03.025Z,7.78
2018-01-11T09:23:12.762Z,10.10
2018-01-11T09:26:23.414Z,8.23
2018-01-11T09:29:33.646Z,9.10
2018-01-11T09:32:44.234Z,7.55
2018-01-11T09:35:55.438Z,8.48
2018-01-11T09:39:06.207Z,6.90
2018-01-11T09:42:16.783Z,10.68
2018-01-11T09:45:27.962Z,9.48
2018-01-11T09:48:38.200Z,8.00
2018-01-11T09:51:48.026Z,10.70
2018-01-11T09:54:58.282Z,8.32
2018-01-11T09:58:08.663Z,9.68
2018-01-11T10:01:19.672Z,7.18
2018-01-11T10:04:30.751Z,8.25
2018-01-11T10:07:40.737Z,8.23
2018-01-11T10:10:51.187Z,8.10
2018-01-11T10:14:01.131Z,8.93
2018-01-11T10:17:10.850Z,6.85
2018-01-11T10:20:22.615Z,7.10
2018-01-11T10:23:33.263Z,9.70
2018-01-11T10:26:43.966Z,9.20
2018-01-11T10:29:54.133Z,8.13
2018-01-11T10:33:05.034Z,7.50
2018-01-11T10:36:16.202Z,8.85
2018-01-11T10:39:33.258Z,6.37
2018-01-11T10:42:43.792Z,8.30
2018-01-11T10:45:54.851Z,6.93
2018-01-11T10:49:05.592Z,9.30
2018-01-11T10:52:15.773Z,8.73
2018-01-11T10:55:26.610Z,7.25
2018-01-11T10:58:36.831Z,6.43
2018-01-11T11:01:53.176Z,8.93
2018-01-11T11:05:03.714Z,8.70
2018-01-11T11:08:13.663Z,10.30
2018-01-11T11:11:24.198Z,9.52
2018-01-11T11:14:34.289Z,8.30
2018-01-11T11:17:44.397Z,10.95
2018-01-11T11:20:54.687Z,8.52
2018-01-11T11:24:05.152Z,8.75
2018-01-11T11:27:15.281Z,8.13
2018-01-11T11:30:25.103Z,11.75
2018-01-11T11:33:35.611Z,8.00
2018-01-11T11:36:45.487Z,12.18
2018-01-11T11:39:55.703Z,9.55
2018-01-11T11:43:06.407Z,8.30
2018-01-11T11:46:16.307Z,8.63
2018-01-11T11:49:26.897Z,10.85
2018-01-11T11:52:38.128Z,10.73
2018-01-11T11:55:48.207Z,9.60
2018-01-11T11:58:58.069Z,8.52
2018-01-11T12:02:08.261Z,8.93
2018-01-11T12:05:18.195Z,10.35
2018-01-11T12:08:28.872Z,25.23
2018-01-11T12:11:39.272Z,13.82
2018-01-11T12:14:50.059Z,9.13
2018-01-11T12:18:00.238Z,12.05
2018-01-11T12:21:10.308Z,16.35
2018-01-11T12:24:21.695Z,21.25
2018-01-11T12:27:33.062Z,31.70
2018-01-11T12:30:43.226Z,14.32
2018-01-11T12:33:53.710Z,10.90
2018-01-11T12:37:03.728Z,9.52
2018-01-11T12:40:13.839Z,10.50
2018-01-11T12:43:23.743Z,9.60
2018-01-11T12:46:34.117Z,10.05
2018-01-11T12:49:44.593Z,9.00
2018-01-11T12:52:54.953Z,8.18
2018-01-11T12:56:04.914Z,11.23
2018-01-11T12:59:15.368Z,20.42
2018-01-11T13:02:25.274Z,22.40
2018-01-11T13:05:35.022Z,12.30
2018-01-11T13:08:45.059Z,8.77
2018-01-11T13:11:55.146Z,12.27
2018-01-11T13:15:05.132Z,10.43
2018-01-11T13:18:15.299Z,10.75
2018-01-11T13:21:25.259Z,11.05
2018-01-11T13:24:35.359Z,14.57
2018-01-11T13:27:45.414Z,13.48
2018-01-11T13:30:55.520Z,11.82
2018-01-11T13:34:05.862Z,15.50
2018-01-11T13:37:16.158Z,18.95
2018-01-11T13:40:26.667Z,23.02
2018-01-11T13:43:37.251Z,11.68
2018-01-11T13:46:47.221Z,14.60
2018-01-11T13:49:57.679Z,14.27
2018-01-11T13:53:07.747Z,13.70
2018-01-11T13:56:18.029Z,12.32
2018-01-11T13:59:28.284Z,15.10
2018-01-11T14:02:38.343Z,14.32
2018-01-11T14:05:48.345Z,17.85
2018-01-11T14:08:58.463Z,12.63
2018-01-11T14:12:09.475Z,11.43
2018-01-11T14:15:20.251Z,11.85
2018-01-11T14:18:30.550Z,11.32
2018-01-11T14:21:41.516Z,14.05
2018-01-11T14:24:52.506Z,12.90
2018-01-11T14:28:02.811Z,13.70
2018-01-11T14:31:13.353Z,12.90
2018-01-11T14:34:23.253Z,13.68
2018-01-11T14:37:33.829Z,16.58
2018-01-11T14:40:44.688Z,15.85
2018-01-11T14:43:55.306Z,14.10
2018-01-11T14:47:05.522Z,14.00
2018-01-11T14:50:16.341Z,16.67
2018-01-11T14:53:27.685Z,13.38
2018-01-11T14:56:38.328Z,11.63
2018-01-11T14:59:48.728Z,13.40
2018-01-11T15:02:59.247Z,13.20
2018-01-11T15:06:09.687Z,12.27
2018-01-11T15:09:20.182Z,13.52
2018-01-11T15:12:30.178Z,12.55
2018-01-11T15:15:40.277Z,13.10
2018-01-11T15:18:49.881Z,13.93
2018-01-11T15:22:00.208Z,14.38
2018-01-11T15:25:09.969Z,14.98
2018-01-11T15:28:19.871Z,14.07
2018-01-11T15:31:30.142Z,14.20
2018-01-11T15:34:40.830Z,13.62
2018-01-11T15:37:50.692Z,15.32
2018-01-11T15:41:01.096Z,12.27
2018-01-11T15:44:11.410Z,13.40
2018-01-11T15:47:21.602Z,13.70
2018-01-11T15:50:31.315Z,15.65
2018-01-11T15:53:41.128Z,13.07
2018-01-11T15:56:51.683Z,13.68
2018-01-11T16:00:02.419Z,14.57
2018-01-11T16:03:12.338Z,11.75
2018-01-11T16:06:22.362Z,11.55
2018-01-11T16:09:32.988Z,12.95
2018-01-11T16:12:42.931Z,12.95
2018-01-11T16:15:53.265Z,10.93
2018-01-11T16:19:03.830Z,11.18
2018-01-11T16:22:13.984Z,10.93
2018-01-11T16:25:24.212Z,15.38
2018-01-11T16:28:34.027Z,13.40
2018-01-11T16:31:44.197Z,12.63
2018-01-11T16:34:54.243Z,13.80
2018-01-11T16:38:04.903Z,12.30
2018-01-11T16:41:14.694Z,11.98
2018-01-11T16:44:24.725Z,13.18
2018-01-11T16:47:34.971Z,13.52
2018-01-11T16:50:45.064Z,13.88
2018-01-11T16:53:55.083Z,10.43
2018-01-11T16:57:05.226Z,12.63
2018-01-11T17:00:14.904Z,13.38
2018-01-11T17:03:27.154Z,12.18
2018-01-11T17:06:38.094Z,14.68
2018-01-11T17:09:49.512Z,16.92
2018-01-11T17:13:00.689Z,14.63
2018-01-11T17:16:11.154Z,16.37
2018-01-11T17:19:21.330Z,12.75
2018-01-11T17:22:32.452Z,15.30
2018-01-11T17:25:44.338Z,16.37
2018-01-11T17:28:54.563Z,16.60
2018-01-11T17:32:05.114Z,17.65
2018-01-11T17:35:15.543Z,19.60
2018-01-11T17:38:26.248Z,18.52
2018-01-11T17:41:36.756Z,16.80
2018-01-11T17:44:47.839Z,18.65
2018-01-11T17:47:59.527Z,17.80
2018-01-11T17:51:10.570Z,21.75
2018-01-11T17:54:20.784Z,20.67
2018-01-11T17:57:31.522Z,20.48
2018-01-11T18:00:42.016Z,25.40
2018-01-11T18:03:52.856Z,23.42
2018-01-11T18:07:04.212Z,22.25
2018-01-11T18:10:14.581Z,17.58
2018-01-11T18:13:27.211Z,19.37
2018-01-11T18:16:38.175Z,17.62
2018-01-11T18:19:48.668Z,19.15
2018-01-11T18:23:00.021Z,17.65
2018-01-11T18:26:10.473Z,15.18
2018-01-11T18:29:21.164Z,16.80
2018-01-11T18:32:32.056Z,15.98
2018-01-11T18:35:42.885Z,18.98
2018-01-11T18:38:52.928Z,16.35
2018-01-11T18:42:03.650Z,22.60
2018-01-11T18:45:14.060Z,17.55
2018-01-11T18:48:24.472Z,21.33
2018-01-11T18:51:34.750Z,21.48
2018-01-11T18:54:45.099Z,21.73
2018-01-11T18:57:55.655Z,22.05
2018-01-11T19:01:05.995Z,16.60
2018-01-11T19:04:21.256Z,20.33
2018-01-11T19:07:32.616Z,22.27
2018-01-11T19:10:42.718Z,18.58
2018-01-11T19:13:55.469Z,20.33
2018-01-11T19:17:05.264Z,18.42
2018-01-11T19:20:15.821Z,18.92
2018-01-11T19:23:26.515Z,20.80
2018-01-11T19:26:36.951Z,17.00
2018-01-11T19:29:47.804Z,14.75
2018-01-11T19:32:57.689Z,14.65
2018-01-11T19:36:12.833Z,18.55
2018-01-11T19:39:22.922Z,18.92
2018-01-11T19:42:33.684Z,15.82
2018-01-11T19:45:44.700Z,16.60
2018-01-11T19:48:54.900Z,15.55
2018-01-11T19:52:04.643Z,16.02
2018-01-11T19:55:15.088Z,13.25
2018-01-11T19:58:27.110Z,14.15
2018-01-11T20:01:37.207Z,16.70
2018-01-11T20:04:47.258Z,14.63
2018-01-11T20:07:57.084Z,15.40
2018-01-11T20:11:07.479Z,14.10
2018-01-11T20:14:18.496Z,16.15
2018-01-11T20:17:29.283Z,17.67
2018-01-11T20:20:39.818Z,16.70
2018-01-11T20:23:51.437Z,15.63
2018-01-11T20:27:02.476Z,16.90
2018-01-11T20:30:12.778Z,15.15
2018-01-11T20:33:23.019Z,13.68
2018-01-11T20:36:32.999Z,16.40
2018-01-11T20:39:43.408Z,14.30
2018-01-11T20:42:53.790Z,15.68
2018-01-11T20:46:04.441Z,17.00
2018-01-11T20:49:14.671Z,15.98
2018-01-11T20:52:26.080Z,14.00
2018-01-11T20:55:36.712Z,16.25
2018-01-11T20:58:47.152Z,17.08
2018-01-11T21:01:57.406Z,17.80
2018-01-11T21:05:07.891Z,21.50
2018-01-11T21:08:18.263Z,20.80
2018-01-11T21:11:28.426Z,19.20
2018-01-11T21:14:39.615Z,18.92
2018-01-11T21:17:50.981Z,18.02
2018-01-11T21:21:01.813Z,17.77
2018-01-11T21:24:13.467Z,20.25
2018-01-11T21:27:24.170Z,22.10
2018-01-11T21:30:34.764Z,20.33
2018-01-11T21:33:45.336Z,19.85
2018-01-11T21:36:55.897Z,18.23
2018-01-11T21:40:06.254Z,21.75
2018-01-11T21:43:16.530Z,20.40
2018-01-11T21:46:27.370Z,17.20
2018-01-11T21:49:37.247Z,18.58
2018-01-11T21:52:47.602Z,18.08
2018-01-11T21:55:57.863Z,22.77
2018-01-11T21:59:08.663Z,16.12
2018-01-11T22:02:19.187Z,19.45
2018-01-11T22:05:29.873Z,20.60
2018-01-11T22:08:40.133Z,20.85
2018-01-11T22:11:50.216Z,17.65
2018-01-11T22:15:00.810Z,17.67
2018-01-11T22:18:11.458Z,16.23
2018-01-11T22:21:21.752Z,15.00
2018-01-11T22:24:32.522Z,17.77
2018-01-11T22:27:42.569Z,19.00
2018-01-11T22:30:53.207Z,17.52
2018-01-11T22:34:03.498Z,17.30
2018-01-11T22:37:14.767Z,14.68
2018-01-11T22:40:25.515Z,15.30
2018-01-11T22:43:35.970Z,16.87
2018-01-11T22:46:46.052Z,15.43
2018-01-11T22:49:56.814Z,15.90
2018-01-11T22:53:06.698Z,14.48
2018-01-11T22:56:16.604Z,16.17
2018-01-11T22:59:26.300Z,14.85
2018-01-11T23:02:36.266Z,16.92
2018-01-11T23:05:46.569Z,17.15
2018-01-11T23:08:56.614Z,15.38
2018-01-11T23:12:06.717Z,14.65
2018-01-11T23:15:16.922Z,15.57
2018-01-11T23:18:27.276Z,17.45
2018-01-11T23:21:37.989Z,14.65
2018-01-11T23:24:49.058Z,13.43
2018-01-11T23:27:59.517Z,12.15
2018-01-11T23:31:09.844Z,14.13
2018-01-11T23:34:20.454Z,15.18
2018-01-11T23:37:30.521Z,15.88
2018-01-11T23:40:40.782Z,17.45
2018-01-11T23:43:51.058Z,16.15
2018-01-11T23:47:01.027Z,18.02
2018-01-11T23:50:11.846Z,20.45
2018-01-11T23:53:21.923Z,19.70
2018-01-11T23:56:32.348Z,20.62
2018-01-11T23:59:42.560Z,17.15
